Time;durP1;ratioP1;P1;durP2;ratioP2;P2;SDS_P1;SDS_P2;PMS_P1;PMS_P2;Temp;Humidity;BMP_temperature;BMP_pressure;BME280_temperature;BME280_humidity;BME280_pressure;Samples;Min_cycle;Max_cycle;Signal;HPM_P1;HPM_P2
2021/11/26 00:02:17;;;;;;;68.32;53.95;;;2.20;86.60;;;;;;5071640;28;20192;-71
2021/11/26 00:04:45;;;;;;;74.43;56.35;;;2.30;85.90;;;;;;5074737;28;20229;-71
2021/11/26 00:07:12;;;;;;;70.00;53.72;;;2.30;85.70;;;;;;5073516;28;20246;-71
2021/11/26 00:09:39;;;;;;;70.28;56.28;;;2.30;85.40;;;;;;5086741;28;20198;-72
2021/11/26 00:12:07;;;;;;;70.13;55.28;;;2.40;85.40;;;;;;5070523;28;20745;-72
2021/11/26 00:14:36;;;;;;;69.35;52.97;;;2.50;85.20;;;;;;5076869;28;20223;-72
2021/11/26 00:17:04;;;;;;;69.03;54.15;;;2.40;85.10;;;;;;5071063;28;20273;-72
2021/11/26 00:19:33;;;;;;;67.55;53.33;;;2.30;85.10;;;;;;5071494;28;20202;-72
2021/11/26 00:22:01;;;;;;;64.05;51.65;;;2.20;85.50;;;;;;5070436;28;20314;-71
2021/11/26 00:24:28;;;;;;;68.35;50.70;;;2.20;85.70;;;;;;5076164;28;20296;-71
2021/11/26 00:26:55;;;;;;;65.18;55.55;;;2.20;85.70;;;;;;5072020;28;20287;-70
2021/11/26 00:29:22;;;;;;;65.55;52.42;;;2.20;85.40;;;;;;5074954;28;20777;-70
2021/11/26 00:31:49;;;;;;;64.25;50.90;;;2.20;85.10;;;;;;5070546;28;20232;-70
2021/11/26 00:34:16;;;;;;;64.07;52.53;;;2.20;85.10;;;;;;5070377;28;20311;-70
2021/11/26 00:36:44;;;;;;;68.43;53.45;;;2.10;85.20;;;;;;5072683;28;20284;-71
2021/11/26 00:39:11;;;;;;;73.85;55.13;;;2.00;85.90;;;;;;5076116;28;20304;-70
2021/11/26 00:41:38;;;;;;;74.63;56.78;;;2.00;86.20;;;;;;5074519;28;20206;-70
2021/11/26 00:44:06;;;;;;;61.45;51.78;;;2.20;86.20;;;;;;5074493;28;20306;-70
2021/11/26 00:46:33;;;;;;;64.10;52.10;;;2.20;85.80;;;;;;5075693;28;20295;-70
2021/11/26 00:49:00;;;;;;;55.13;49.05;;;2.40;84.70;;;;;;5071348;28;20278;-70
2021/11/26 00:51:30;;;;;;;69.85;53.33;;;2.40;84.30;;;;;;5073250;28;20238;-70
2021/11/26 00:53:59;;;;;;;73.38;54.47;;;2.30;84.30;;;;;;5070613;28;20219;-71
2021/11/26 00:56:26;;;;;;;64.57;53.15;;;2.10;85.10;;;;;;5070520;28;20681;-70
2021/11/26 00:58:53;;;;;;;68.07;54.28;;;2.10;85.80;;;;;;5076341;28;20235;-70
2021/11/26 01:01:20;;;;;;;65.70;53.40;;;2.10;85.80;;;;;;5071216;28;20218;-70
2021/11/26 01:03:47;;;;;;;68.10;54.33;;;2.20;85.50;;;;;;5080502;28;20764;-70
2021/11/26 01:06:14;;;;;;;67.63;53.65;;;2.20;85.20;;;;;;5070344;28;20610;-70
2021/11/26 01:08:41;;;;;;;66.35;50.85;;;2.10;85.60;;;;;;5074468;28;20199;-71
2021/11/26 01:11:09;;;;;;;66.50;49.53;;;2.00;85.90;;;;;;5088393;28;20203;-71
2021/11/26 01:13:36;;;;;;;65.65;51.42;;;2.00;86.30;;;;;;5070884;28;20254;-71
2021/11/26 01:16:03;;;;;;;76.47;54.75;;;1.90;86.50;;;;;;5074799;28;20287;-71
2021/11/26 01:18:30;;;;;;;62.85;53.08;;;2.00;86.30;;;;;;5073097;28;20202;-71
2021/11/26 01:20:58;;;;;;;68.47;53.63;;;2.00;85.90;;;;;;5068568;28;20238;-71
2021/11/26 01:23:25;;;;;;;62.28;51.15;;;1.80;86.70;;;;;;5068829;28;20618;-72
2021/11/26 01:25:52;;;;;;;66.45;52.97;;;1.90;86.70;;;;;;5077531;28;20633;-72
2021/11/26 01:28:20;;;;;;;72.80;54.20;;;2.00;86.20;;;;;;5073246;28;20294;-72
2021/11/26 01:30:49;;;;;;;68.70;53.08;;;2.20;85.80;;;;;;5075649;28;20704;-71
2021/11/26 01:33:17;;;;;;;70.75;53.63;;;2.20;85.30;;;;;;5068689;28;20562;-71
2021/11/26 01:35:47;;;;;;;64.47;54.38;;;2.10;85.70;;;;;;5069983;28;20246;-72
2021/11/26 01:38:14;;;;;;;65.45;50.78;;;2.10;86.10;;;;;;5070393;28;20223;-71
2021/11/26 01:40:43;;;;;;;69.15;54.08;;;2.20;85.70;;;;;;5081102;28;20291;-72
2021/11/26 01:43:12;;;;;;;59.97;50.80;;;2.10;85.40;;;;;;5069873;28;20597;-72
2021/11/26 01:45:44;;;;;;;60.58;54.03;;;2.10;85.50;;;;;;5072742;28;20274;-72
2021/11/26 01:48:11;;;;;;;64.35;51.50;;;2.10;85.40;;;;;;5068324;28;20295;-72
2021/11/26 01:50:38;;;;;;;66.68;53.35;;;2.00;85.60;;;;;;5072453;28;20282;-72
2021/11/26 01:53:06;;;;;;;61.28;52.50;;;2.10;85.70;;;;;;5072101;28;20315;-72
2021/11/26 01:55:33;;;;;;;64.25;52.45;;;2.20;85.00;;;;;;5072737;28;20298;-72
2021/11/26 01:58:00;;;;;;;68.15;53.10;;;2.10;84.90;;;;;;5074425;28;20257;-72
2021/11/26 02:00:30;;;;;;;68.75;53.97;;;1.90;86.00;;;;;;5072312;28;20203;-72
2021/11/26 02:02:58;;;;;;;69.05;53.33;;;1.80;86.80;;;;;;5079180;28;20234;-72
2021/11/26 02:05:25;;;;;;;64.25;53.10;;;1.90;86.60;;;;;;5066442;28;20484;-72
2021/11/26 02:07:52;;;;;;;62.90;52.35;;;2.00;86.40;;;;;;5073651;28;20634;-72
2021/11/26 02:10:20;;;;;;;66.25;53.03;;;2.20;85.50;;;;;;5072853;28;20285;-71
2021/11/26 02:12:47;;;;;;;64.68;52.65;;;2.20;85.30;;;;;;5069936;28;20643;-71
2021/11/26 02:15:19;;;;;;;66.22;51.67;;;2.20;85.40;;;;;;5069605;28;20219;-71
2021/11/26 02:17:46;;;;;;;67.93;53.33;;;2.10;85.60;;;;;;5068726;28;20695;-71
2021/11/26 02:20:19;;;;;;;70.07;53.17;;;2.10;85.50;;;;;;5066872;28;20231;-70
2021/11/26 02:22:46;;;;;;;63.28;51.65;;;2.20;85.30;;;;;;5071037;28;20650;-70
2021/11/26 02:25:14;;;;;;;66.90;51.85;;;2.20;85.30;;;;;;5073127;28;20197;-70
2021/11/26 02:27:41;;;;;;;66.10;52.13;;;2.30;85.40;;;;;;5071709;28;20234;-70
2021/11/26 02:30:14;;;;;;;68.00;52.08;;;2.40;84.80;;;;;;5073286;28;20283;-71
2021/11/26 02:32:42;;;;;;;59.72;51.15;;;2.30;84.50;;;;;;5075194;28;20226;-71
2021/11/26 02:35:10;;;;;;;57.58;48.30;;;2.30;84.70;;;;;;5077955;28;20258;-71
2021/11/26 02:37:40;;;;;;;57.80;48.08;;;2.30;84.40;;;;;;5087087;28;20289;-71
2021/11/26 02:40:09;;;;;;;53.65;46.70;;;2.30;84.40;;;;;;5068111;28;20627;-71
2021/11/26 02:42:38;;;;;;;56.53;48.72;;;2.40;83.70;;;;;;5066700;28;20649;-72
2021/11/26 02:45:06;;;;;;;58.70;50.42;;;2.30;84.20;;;;;;5065707;28;20302;-71
2021/11/26 02:47:33;;;;;;;56.88;48.95;;;2.30;84.60;;;;;;5082158;28;20286;-71
2021/11/26 02:50:03;;;;;;;53.42;47.60;;;2.30;84.20;;;;;;5075578;28;20252;-71
2021/11/26 02:52:30;;;;;;;54.55;46.00;;;2.20;84.10;;;;;;5072230;28;20631;-71
2021/11/26 02:54:58;;;;;;;56.00;50.08;;;2.10;84.00;;;;;;5075693;28;20251;-70
2021/11/26 02:57:25;;;;;;;53.72;48.03;;;2.10;84.20;;;;;;5069692;28;20642;-70
2021/11/26 02:59:52;;;;;;;59.08;50.55;;;2.20;84.10;;;;;;5069020;28;20312;-70
2021/11/26 03:02:19;;;;;;;60.97;48.17;;;2.20;84.30;;;;;;5079656;28;20757;-70
2021/11/26 03:04:46;;;;;;;56.08;47.50;;;2.10;84.70;;;;;;5069359;28;20315;-72
2021/11/26 03:07:13;;;;;;;55.47;47.55;;;2.10;84.90;;;;;;5066770;28;20290;-71
2021/11/26 03:09:41;;;;;;;54.30;48.00;;;2.10;84.80;;;;;;5068120;28;20222;-71
2021/11/26 03:12:10;;;;;;;56.33;49.15;;;2.00;85.20;;;;;;5077322;28;20200;-71
2021/11/26 03:14:37;;;;;;;59.38;49.10;;;2.10;85.00;;;;;;5067910;28;20316;-71
2021/11/26 03:17:04;;;;;;;60.13;49.42;;;2.10;85.20;;;;;;5068429;28;20230;-71
2021/11/26 03:19:32;;;;;;;58.45;50.10;;;2.10;85.40;;;;;;5067728;28;20292;-71
2021/11/26 03:21:59;;;;;;;67.60;53.75;;;2.10;85.40;;;;;;5065947;28;20192;-71
2021/11/26 03:24:26;;;;;;;63.88;52.22;;;2.20;85.40;;;;;;5071897;28;20294;-70
2021/11/26 03:26:53;;;;;;;65.32;51.80;;;2.20;85.00;;;;;;5075430;28;20203;-70
2021/11/26 03:29:21;;;;;;;62.85;52.42;;;2.20;85.20;;;;;;5069978;28;20302;-71
2021/11/26 03:31:48;;;;;;;61.60;52.22;;;2.30;85.20;;;;;;5078163;28;20689;-70
2021/11/26 03:34:15;;;;;;;63.35;51.45;;;2.20;85.20;;;;;;5078981;28;20307;-71
2021/11/26 03:36:42;;;;;;;62.58;50.50;;;2.10;85.60;;;;;;5069761;28;20290;-71
2021/11/26 03:39:09;;;;;;;57.72;48.20;;;2.00;85.70;;;;;;5067486;28;20669;-70
2021/11/26 03:41:36;;;;;;;61.92;50.85;;;1.90;86.30;;;;;;5074405;28;20204;-71
2021/11/26 03:44:03;;;;;;;62.45;51.67;;;2.00;86.20;;;;;;5073313;28;20239;-71
2021/11/26 03:46:32;;;;;;;60.22;49.38;;;2.10;86.10;;;;;;5067334;28;20282;-70
2021/11/26 03:48:59;;;;;;;62.35;50.65;;;2.10;85.90;;;;;;5067991;28;20219;-71
2021/11/26 03:51:26;;;;;;;69.75;52.30;;;2.20;86.00;;;;;;5066687;28;20314;-71
2021/11/26 03:53:53;;;;;;;65.97;51.45;;;2.20;85.90;;;;;;5070146;28;20243;-71
2021/11/26 03:56:20;;;;;;;60.92;53.95;;;2.30;85.40;;;;;;5079168;28;20303;-71
2021/11/26 03:58:47;;;;;;;57.97;49.42;;;2.30;85.50;;;;;;5074293;28;20636;-71
2021/11/26 04:01:14;;;;;;;56.92;50.75;;;2.20;85.00;;;;;;5073931;28;20222;-71
2021/11/26 04:03:42;;;;;;;56.97;50.15;;;2.10;85.90;;;;;;5072844;28;20306;-71
2021/11/26 04:06:09;;;;;;;61.35;51.00;;;2.10;86.20;;;;;;5070676;28;20290;-70
2021/11/26 04:08:36;;;;;;;61.80;50.95;;;2.10;86.30;;;;;;5077617;28;20284;-70
2021/11/26 04:11:03;;;;;;;61.50;51.90;;;2.20;86.20;;;;;;5074024;28;20277;-70
2021/11/26 04:13:31;;;;;;;66.97;54.42;;;2.20;86.00;;;;;;5079163;28;20270;-71
2021/11/26 04:16:03;;;;;;;63.05;52.35;;;2.20;86.40;;;;;;5087822;28;20211;-71
2021/11/26 04:18:33;;;;;;;66.63;54.90;;;2.20;86.50;;;;;;5077696;28;20199;-71
2021/11/26 04:21:02;;;;;;;66.68;52.65;;;2.30;86.40;;;;;;5070558;28;20280;-71
2021/11/26 04:23:29;;;;;;;58.58;48.20;;;2.40;86.40;;;;;;5078439;28;20626;-71
2021/11/26 04:25:56;;;;;;;71.55;53.83;;;2.40;86.20;;;;;;5071975;28;20279;-71
2021/11/26 04:28:24;;;;;;;63.25;52.63;;;2.50;86.40;;;;;;5076425;28;20233;-71
2021/11/26 04:30:51;;;;;;;63.45;52.70;;;2.40;86.80;;;;;;5070950;28;20279;-71
2021/11/26 04:33:18;;;;;;;72.05;53.58;;;2.40;87.20;;;;;;5077322;28;20858;-71
2021/11/26 04:35:47;;;;;;;68.03;53.28;;;2.60;87.00;;;;;;5071355;28;20302;-71
2021/11/26 04:38:16;;;;;;;59.05;48.65;;;2.50;87.30;;;;;;5081036;28;20260;-71
2021/11/26 04:40:43;;;;;;;57.53;50.53;;;2.50;87.40;;;;;;5072059;28;20192;-70
2021/11/26 04:43:10;;;;;;;62.47;53.15;;;2.50;87.70;;;;;;5072989;28;20311;-71
2021/11/26 04:45:37;;;;;;;62.17;50.17;;;2.60;87.80;;;;;;5070755;28;20729;-71
2021/11/26 04:48:05;;;;;;;64.82;53.38;;;2.70;87.60;;;;;;5075970;28;20286;-71
2021/11/26 04:50:33;;;;;;;57.53;51.20;;;2.70;87.20;;;;;;5070692;28;20198;-71
2021/11/26 04:53:00;;;;;;;59.58;50.00;;;2.60;87.60;;;;;;5072582;28;20194;-71
2021/11/26 04:55:28;;;;;;;60.38;49.08;;;2.70;87.70;;;;;;5082034;28;20222;-70
2021/11/26 04:57:55;;;;;;;60.28;49.15;;;2.80;87.10;;;;;;5072868;28;20283;-71
2021/11/26 05:00:23;;;;;;;60.08;49.63;;;2.90;86.70;;;;;;5082395;28;20195;-71
2021/11/26 05:02:51;;;;;;;61.20;52.45;;;2.80;86.60;;;;;;5074372;28;20290;-71
2021/11/26 05:05:18;;;;;;;60.13;51.40;;;2.70;86.80;;;;;;5076449;28;20286;-71
2021/11/26 05:07:45;;;;;;;62.40;50.10;;;2.80;86.90;;;;;;5077808;28;20286;-71
2021/11/26 05:10:13;;;;;;;60.80;52.53;;;2.80;86.90;;;;;;5071170;28;20666;-70
2021/11/26 05:12:45;;;;;;;59.63;49.28;;;2.90;86.90;;;;;;5068946;28;20292;-71
2021/11/26 05:15:12;;;;;;;61.78;54.72;;;2.90;86.30;;;;;;5069338;28;20328;-70
2021/11/26 05:17:39;;;;;;;63.97;53.33;;;2.90;86.40;;;;;;5069549;28;20650;-71
2021/11/26 05:20:07;;;;;;;66.50;53.10;;;2.90;86.50;;;;;;5067592;28;20285;-71
2021/11/26 05:22:34;;;;;;;71.57;54.80;;;2.90;86.50;;;;;;5079535;28;20432;-71
2021/11/26 05:25:01;;;;;;;60.38;50.50;;;3.00;86.50;;;;;;5072416;28;20298;-70
2021/11/26 05:27:28;;;;;;;65.57;53.85;;;3.00;86.20;;;;;;5080557;28;20282;-71
2021/11/26 05:29:56;;;;;;;67.53;53.58;;;2.90;86.30;;;;;;5072038;28;20721;-71
2021/11/26 05:32:23;;;;;;;64.85;52.90;;;2.90;86.50;;;;;;5079706;28;20298;-71
2021/11/26 05:34:50;;;;;;;65.45;52.15;;;2.70;86.70;;;;;;5071691;28;20307;-70
2021/11/26 05:37:17;;;;;;;74.30;53.60;;;2.60;87.10;;;;;;5071298;28;20308;-70
2021/11/26 05:39:44;;;;;;;65.10;53.67;;;2.40;87.90;;;;;;5074254;28;20736;-71
2021/11/26 05:42:11;;;;;;;62.53;53.28;;;2.50;87.50;;;;;;5072612;28;20203;-71
2021/11/26 05:44:38;;;;;;;65.68;52.47;;;2.60;87.20;;;;;;5069733;28;20306;-70
2021/11/26 05:47:06;;;;;;;75.97;54.55;;;2.50;87.20;;;;;;5068786;28;20283;-71
2021/11/26 05:49:33;;;;;;;68.25;53.67;;;2.30;87.80;;;;;;5072097;28;20257;-70
2021/11/26 05:52:00;;;;;;;70.90;53.22;;;2.30;88.20;;;;;;5068868;28;20295;-71
2021/11/26 05:54:27;;;;;;;62.65;50.92;;;2.20;88.50;;;;;;5073181;28;20724;-70
2021/11/26 05:56:54;;;;;;;60.35;49.65;;;2.30;88.50;;;;;;5069273;28;20255;-71
2021/11/26 05:59:21;;;;;;;67.45;51.83;;;2.30;88.30;;;;;;5070368;28;20283;-71
2021/11/26 06:01:48;;;;;;;69.15;53.30;;;2.20;88.40;;;;;;5070091;28;20295;-70
2021/11/26 06:04:16;;;;;;;60.70;47.22;;;2.20;89.00;;;;;;5081987;28;20219;-71
2021/11/26 06:06:43;;;;;;;59.92;50.53;;;2.20;88.80;;;;;;5067998;28;20744;-71
2021/11/26 06:09:10;;;;;;;52.53;46.80;;;2.30;88.40;;;;;;5072742;28;20278;-70
2021/11/26 06:11:37;;;;;;;56.50;47.30;;;2.30;88.20;;;;;;5079266;28;20188;-70
2021/11/26 06:14:04;;;;;;;55.00;47.88;;;2.40;87.60;;;;;;5083858;28;20650;-70
2021/11/26 06:16:31;;;;;;;56.25;48.28;;;2.40;87.40;;;;;;5073947;28;20617;-70
2021/11/26 06:18:58;;;;;;;58.83;49.65;;;2.50;87.40;;;;;;5070389;28;20210;-70
2021/11/26 06:21:26;;;;;;;55.78;49.50;;;2.70;87.30;;;;;;5068762;28;20284;-70
2021/11/26 06:23:53;;;;;;;55.58;48.13;;;2.80;86.40;;;;;;5074261;28;20227;-71
2021/11/26 06:26:20;;;;;;;61.80;50.08;;;2.70;85.70;;;;;;5069033;28;20192;-70
2021/11/26 06:28:47;;;;;;;56.97;48.10;;;2.70;86.40;;;;;;5069983;28;20638;-70
2021/11/26 06:31:14;;;;;;;60.72;49.92;;;2.70;86.30;;;;;;5069457;28;20287;-70
2021/11/26 06:33:41;;;;;;;55.00;47.03;;;2.70;86.30;;;;;;5069015;28;20303;-71
2021/11/26 06:36:08;;;;;;;54.58;46.55;;;2.70;86.20;;;;;;5068580;28;20222;-71
2021/11/26 06:38:36;;;;;;;53.40;47.50;;;2.70;86.10;;;;;;5073221;28;20231;-71
2021/11/26 06:41:03;;;;;;;56.58;45.97;;;2.80;86.00;;;;;;5068668;28;20287;-70
2021/11/26 06:43:31;;;;;;;57.47;46.67;;;2.80;86.00;;;;;;5068897;28;20310;-70
2021/11/26 06:45:58;;;;;;;54.50;48.33;;;2.80;86.10;;;;;;5073685;28;20275;-70
2021/11/26 06:48:27;;;;;;;54.13;48.22;;;2.90;86.00;;;;;;5069883;28;20219;-71
2021/11/26 06:50:54;;;;;;;58.80;49.90;;;2.90;86.00;;;;;;5067978;28;20199;-71
2021/11/26 06:53:21;;;;;;;59.33;49.05;;;2.90;85.80;;;;;;5068584;28;20258;-71
2021/11/26 06:55:51;;;;;;;56.30;49.45;;;2.90;86.10;;;;;;5073322;28;20226;-71
2021/11/26 06:58:18;;;;;;;54.08;47.63;;;2.90;86.20;;;;;;5075180;28;20658;-71
2021/11/26 07:00:45;;;;;;;58.35;50.00;;;2.90;86.00;;;;;;5072704;28;20278;-71
2021/11/26 07:03:11;;;;;;;52.78;46.80;;;3.10;85.90;;;;;;5075512;28;20322;-71
2021/11/26 07:05:38;;;;;;;60.67;49.60;;;3.10;85.60;;;;;;5074366;28;20196;-71
2021/11/26 07:08:06;;;;;;;53.42;47.10;;;3.20;85.40;;;;;;5069383;28;20311;-69
2021/11/26 07:10:33;;;;;;;56.70;48.28;;;3.20;85.10;;;;;;5067716;28;20746;-71
2021/11/26 07:13:01;;;;;;;57.08;50.60;;;3.20;85.00;;;;;;5067720;28;20455;-71
2021/11/26 07:15:28;;;;;;;58.22;45.70;;;3.30;85.00;;;;;;5074406;28;20669;-71
2021/11/26 07:17:55;;;;;;;54.53;48.72;;;3.30;84.40;;;;;;5072940;28;20256;-71
2021/11/26 07:20:23;;;;;;;57.40;48.17;;;3.20;84.60;;;;;;5072195;28;20661;-71
2021/11/26 07:22:50;;;;;;;56.38;49.80;;;3.10;84.90;;;;;;5068336;28;20235;-71
2021/11/26 07:25:17;;;;;;;55.25;49.38;;;3.20;84.90;;;;;;5076591;28;20380;-71
2021/11/26 07:27:44;;;;;;;60.10;49.60;;;3.40;84.70;;;;;;5076614;28;20661;-70
2021/11/26 07:30:14;;;;;;;61.47;50.38;;;3.50;84.00;;;;;;5074141;28;20282;-72
2021/11/26 07:32:41;;;;;;;59.47;50.10;;;3.40;83.80;;;;;;5079200;28;20205;-72
2021/11/26 07:35:09;;;;;;;63.63;52.10;;;3.40;84.40;;;;;;5084342;28;20310;-71
2021/11/26 07:37:36;;;;;;;56.83;50.50;;;3.40;89.30;;;;;;5072262;28;20251;-71
2021/11/26 07:40:07;;;;;;;57.40;48.20;;;3.40;88.60;;;;;;5078779;28;20278;-72
2021/11/26 07:42:34;;;;;;;55.83;49.47;;;3.50;86.80;;;;;;5080141;28;20665;-71
2021/11/26 07:45:01;;;;;;;60.38;51.10;;;3.50;85.80;;;;;;5075192;28;20245;-71
2021/11/26 07:47:30;;;;;;;55.00;49.10;;;3.50;84.70;;;;;;5083879;28;20196;-71
2021/11/26 07:49:57;;;;;;;57.30;47.15;;;3.40;85.10;;;;;;5078849;28;20227;-70
2021/11/26 07:52:25;;;;;;;57.33;49.80;;;3.40;85.10;;;;;;5074519;28;20308;-71
2021/11/26 07:54:52;;;;;;;58.47;48.53;;;3.40;84.90;;;;;;5075860;28;20628;-72
2021/11/26 08:03:44;;;;;;;61.25;50.78;;;3.50;84.80;;;;;;5388268;22;20227;-72
2021/11/26 08:06:13;;;;;;;56.83;48.15;;;3.50;84.50;;;;;;5066396;28;20196;-72
2021/11/26 08:08:40;;;;;;;55.42;47.03;;;3.60;83.90;;;;;;5071815;28;20268;-72
2021/11/26 08:11:08;;;;;;;51.28;45.72;;;3.70;83.60;;;;;;5066651;28;20204;-72
2021/11/26 08:13:34;;;;;;;58.55;48.35;;;3.70;83.40;;;;;;5065136;28;20222;-72
2021/11/26 08:16:02;;;;;;;57.35;49.53;;;3.80;83.40;;;;;;5068736;28;20303;-72
2021/11/26 08:18:29;;;;;;;55.95;48.85;;;3.90;83.10;;;;;;5071982;28;20451;-71
2021/11/26 08:20:57;;;;;;;58.85;47.47;;;3.80;83.20;;;;;;5073143;28;20196;-72
2021/11/26 08:23:24;;;;;;;54.83;47.45;;;3.80;83.40;;;;;;5071456;28;20637;-72
2021/11/26 08:25:51;;;;;;;54.28;47.97;;;3.80;83.10;;;;;;5065428;28;20235;-72
2021/11/26 08:28:18;;;;;;;57.20;49.33;;;3.90;83.30;;;;;;5068902;28;20283;-74
2021/11/26 08:30:45;;;;;;;58.90;48.63;;;4.00;85.10;;;;;;5066777;28;20284;-72
2021/11/26 08:33:12;;;;;;;54.47;48.25;;;4.00;85.20;;;;;;5065050;28;20304;-72
2021/11/26 08:35:39;;;;;;;60.72;52.38;;;4.00;84.30;;;;;;5068375;28;20188;-72
2021/11/26 08:38:08;;;;;;;55.10;46.28;;;4.00;84.30;;;;;;5068129;28;20224;-72
2021/11/26 08:40:35;;;;;;;50.15;44.85;;;4.10;83.70;;;;;;5065371;28;20648;-72
2021/11/26 08:43:02;;;;;;;51.90;46.20;;;4.20;82.90;;;;;;5068883;28;20692;-72
2021/11/26 08:45:29;;;;;;;53.50;47.90;;;4.20;82.80;;;;;;5063395;28;20199;-72
2021/11/26 08:47:56;;;;;;;49.70;44.35;;;4.30;82.60;;;;;;5065512;28;20206;-72
2021/11/26 08:50:24;;;;;;;52.90;47.15;;;4.20;82.50;;;;;;5068123;28;20196;-71
2021/11/26 08:52:51;;;;;;;56.00;46.95;;;4.20;82.80;;;;;;5066116;28;20304;-71
2021/11/26 08:55:20;;;;;;;49.95;44.30;;;4.20;84.20;;;;;;5062174;28;20211;-71
2021/11/26 08:57:52;;;;;;;57.55;47.92;;;4.20;84.00;;;;;;5070116;28;20220;-71
2021/11/26 09:00:22;;;;;;;57.53;48.80;;;4.30;84.60;;;;;;5066762;28;20195;-72
2021/11/26 09:02:49;;;;;;;53.65;47.47;;;4.40;85.60;;;;;;5065327;28;20334;-72
2021/11/26 09:05:16;;;;;;;56.75;46.40;;;4.50;85.90;;;;;;5067088;28;20230;-72
2021/11/26 09:07:45;;;;;;;61.92;51.20;;;4.70;85.60;;;;;;5075397;28;20187;-72
2021/11/26 09:10:12;;;;;;;54.38;48.53;;;4.80;85.90;;;;;;5068758;28;20196;-72
2021/11/26 09:12:40;;;;;;;52.25;46.53;;;4.90;84.90;;;;;;5068494;28;20299;-72
2021/11/26 09:15:08;;;;;;;58.65;50.00;;;4.90;84.20;;;;;;5067851;28;20282;-72
2021/11/26 09:17:36;;;;;;;103.35;55.75;;;4.90;87.50;;;;;;5064188;28;20274;-72
2021/11/26 09:20:04;;;;;;;514.58;98.85;;;4.80;87.90;;;;;;5070547;28;20298;-72
2021/11/26 09:22:31;;;;;;;57.08;49.90;;;4.90;90.60;;;;;;5067739;28;20623;-72
2021/11/26 09:24:58;;;;;;;55.55;49.45;;;4.90;88.70;;;;;;5069614;28;20279;-72
2021/11/26 09:27:25;;;;;;;55.80;48.85;;;5.10;83.80;;;;;;5068494;28;20728;-72
2021/11/26 09:29:54;;;;;;;52.00;46.35;;;5.00;89.60;;;;;;5068068;28;20196;-72
2021/11/26 09:32:21;;;;;;;56.72;48.55;;;5.00;88.80;;;;;;5065598;28;21127;-72
2021/11/26 09:34:48;;;;;;;56.22;50.03;;;5.10;86.30;;;;;;5068118;28;20756;-72
2021/11/26 09:37:15;;;;;;;212.45;65.32;;;5.10;83.60;;;;;;5066301;28;20255;-71
2021/11/26 09:39:42;;;;;;;787.25;132.73;;;5.10;88.20;;;;;;5065253;28;20552;-71
2021/11/26 09:42:10;;;;;;;56.65;50.35;;;5.10;85.00;;;;;;5064498;28;20207;-71
2021/11/26 09:44:39;;;;;;;56.05;49.85;;;5.10;83.60;;;;;;5059809;28;20228;-71
2021/11/26 09:47:09;;;;;;;58.25;52.03;;;5.20;82.10;;;;;;5065670;28;20204;-71
2021/11/26 09:49:36;;;;;;;54.40;48.15;;;5.20;81.60;;;;;;5069367;28;20203;-71
2021/11/26 09:52:03;;;;;;;57.38;49.55;;;5.10;82.70;;;;;;5068570;28;20234;-71
2021/11/26 09:54:38;;;;;;;59.35;52.90;;;5.10;82.70;;;;;;5069498;28;20228;-70
2021/11/26 09:57:06;;;;;;;66.45;54.25;;;5.00;86.40;;;;;;5068771;28;20248;-71
2021/11/26 09:59:33;;;;;;;58.83;51.88;;;4.90;84.20;;;;;;5067880;28;20295;-71
2021/11/26 10:02:11;;;;;;;62.10;50.05;;;5.10;84.20;;;;;;5061215;28;20616;-71
2021/11/26 10:04:38;;;;;;;57.10;49.13;;;5.00;82.50;;;;;;5068308;28;20191;-71
2021/11/26 10:07:06;;;;;;;60.22;50.13;;;5.00;81.80;;;;;;5067161;28;20238;-70
2021/11/26 10:09:35;;;;;;;58.83;49.22;;;5.10;81.90;;;;;;5070292;28;20224;-71
2021/11/26 10:12:05;;;;;;;54.15;47.92;;;5.10;81.20;;;;;;5065236;28;20223;-70
2021/11/26 10:14:37;;;;;;;58.83;50.58;;;5.10;82.20;;;;;;5066567;28;20572;-75
2021/11/26 10:17:09;;;;;;;60.63;49.70;;;5.20;81.00;;;;;;5064776;28;20258;-70
2021/11/26 10:19:40;;;;;;;59.15;50.30;;;5.10;82.20;;;;;;5071795;28;20202;-70
2021/11/26 10:22:19;;;;;;;61.08;50.38;;;5.00;83.40;;;;;;5066352;28;20262;-71
2021/11/26 10:25:03;;;;;;;57.17;48.45;;;5.30;82.10;;;;;;5073338;28;20195;-70
2021/11/26 10:27:36;;;;;;;64.90;49.65;;;5.30;81.00;;;;;;5061069;28;20199;-71
2021/11/26 10:30:16;;;;;;;59.30;51.65;;;5.20;82.50;;;;;;5069272;28;20274;-69
2021/11/26 10:32:52;;;;;;;59.08;52.67;;;5.30;82.10;;;;;;5066884;28;20252;-71
2021/11/26 10:35:21;;;;;;;59.60;49.80;;;5.40;82.00;;;;;;5066568;28;20660;-71
2021/11/26 10:37:56;;;;;;;59.80;50.03;;;5.30;82.10;;;;;;5069778;28;20258;-72
2021/11/26 10:40:26;;;;;;;52.00;46.38;;;5.20;82.50;;;;;;5067922;28;20604;-71
2021/11/26 10:42:54;;;;;;;57.60;49.88;;;5.30;82.10;;;;;;5057293;28;20215;-70
2021/11/26 10:45:35;;;;;;;57.83;46.92;;;5.40;82.00;;;;;;5066068;28;20227;-72
2021/11/26 10:51:05;;;;;;;57.30;48.72;;;5.50;80.20;;;;;;5063681;28;20195;-72
2021/11/26 10:56:54;;;;;;;55.00;47.75;;;5.40;81.30;;;;;;4983175;28;20202;-71
2021/11/26 10:59:26;;;;;;;74.93;52.78;;;5.20;81.60;;;;;;4977781;28;20277;-72
2021/11/26 11:01:53;;;;;;;56.53;48.83;;;5.30;81.50;;;;;;5028505;28;20203;-73
2021/11/26 11:04:22;;;;;;;58.25;50.92;;;5.20;81.80;;;;;;5065696;28;20297;-74
2021/11/26 11:06:58;;;;;;;57.20;46.28;;;5.30;82.20;;;;;;5060797;28;20636;-74
2021/11/26 11:09:25;;;;;;;53.33;46.55;;;5.40;81.40;;;;;;5057713;28;20226;-74
2021/11/26 11:11:55;;;;;;;53.95;46.15;;;5.40;83.60;;;;;;5065292;28;20224;-74
2021/11/26 11:14:25;;;;;;;53.00;47.28;;;5.40;83.00;;;;;;5066424;28;20255;-71
2021/11/26 11:16:54;;;;;;;163.27;57.90;;;5.50;80.90;;;;;;5066355;28;20200;-74
2021/11/26 11:19:22;;;;;;;74.65;51.05;;;5.40;82.90;;;;;;5067327;28;20283;-74
2021/11/26 11:21:50;;;;;;;60.50;48.10;;;5.40;84.20;;;;;;5062980;28;20260;-74
2021/11/26 11:24:20;;;;;;;58.88;50.83;;;5.50;82.00;;;;;;5070151;28;20879;-74
2021/11/26 11:26:50;;;;;;;52.83;46.95;;;5.40;81.60;;;;;;5061711;28;20317;-71
2021/11/26 11:29:18;;;;;;;52.33;46.58;;;5.40;82.60;;;;;;5060703;28;20231;-72
2021/11/26 11:31:46;;;;;;;53.42;46.80;;;5.30;85.30;;;;;;5059085;28;20323;-72
2021/11/26 11:34:15;;;;;;;61.45;49.08;;;5.30;88.60;;;;;;5059641;28;20301;-72
2021/11/26 11:36:44;;;;;;;54.47;47.47;;;5.50;85.20;;;;;;5052916;28;20188;-72
2021/11/26 11:39:11;;;;;;;53.58;47.75;;;5.50;83.20;;;;;;5056569;28;20318;-72
2021/11/26 11:41:47;;;;;;;48.63;43.55;;;5.40;83.20;;;;;;5062505;28;20826;-72
2021/11/26 11:44:28;;;;;;;51.35;45.72;;;5.40;85.40;;;;;;5067574;28;20223;-71
2021/11/26 11:46:55;;;;;;;52.03;46.30;;;5.50;83.70;;;;;;5062341;28;20210;-70
2021/11/26 11:49:25;;;;;;;58.08;46.58;;;5.40;84.40;;;;;;5066540;28;20535;-71
2021/11/26 11:51:52;;;;;;;55.13;45.75;;;5.40;85.00;;;;;;5064755;28;20254;-72
2021/11/26 11:54:20;;;;;;;52.92;47.20;;;5.40;84.20;;;;;;5068472;28;20297;-72
2021/11/26 11:56:51;;;;;;;50.10;44.88;;;5.50;83.30;;;;;;5068689;28;20211;-72
2021/11/26 11:59:26;;;;;;;51.40;45.88;;;5.70;82.00;;;;;;5074540;28;20227;-72
2021/11/26 12:01:54;;;;;;;53.78;44.38;;;5.70;81.50;;;;;;5064292;28;20210;-72
2021/11/26 12:04:22;;;;;;;51.10;45.40;;;5.70;81.20;;;;;;5066157;28;20216;-71
2021/11/26 12:06:51;;;;;;;47.17;41.90;;;5.60;81.90;;;;;;5067280;28;20758;-72
2021/11/26 12:09:24;;;;;;;47.83;42.65;;;5.50;82.90;;;;;;5066548;28;20287;-71
2021/11/26 12:12:03;;;;;;;45.80;41.05;;;5.50;83.70;;;;;;5062736;28;20295;-72
2021/11/26 12:14:30;;;;;;;50.00;44.55;;;5.60;84.80;;;;;;5053892;28;20290;-71
2021/11/26 12:19:39;;;;;;;49.17;43.83;;;5.50;84.50;;;;;;5067620;28;20195;-71
2021/11/26 12:22:09;;;;;;;57.92;45.42;;;5.60;85.10;;;;;;5063503;28;20287;-72
2021/11/26 12:24:38;;;;;;;53.90;46.20;;;5.60;86.90;;;;;;5070347;28;20199;-72
2021/11/26 12:27:08;;;;;;;51.22;45.85;;;5.70;83.70;;;;;;5068057;28;20672;-71
2021/11/26 12:29:41;;;;;;;48.97;40.95;;;5.70;85.20;;;;;;5066886;28;20204;-71
2021/11/26 12:32:12;;;;;;;48.70;43.60;;;5.60;84.70;;;;;;5068387;28;20715;-72
2021/11/26 12:34:41;;;;;;;50.00;44.53;;;5.70;82.10;;;;;;5070229;28;20611;-72
2021/11/26 12:37:19;;;;;;;53.08;46.95;;;5.70;81.40;;;;;;5068891;28;20210;-71
2021/11/26 12:39:47;;;;;;;144.15;52.42;;;5.70;82.30;;;;;;5069235;28;20300;-72
2021/11/26 12:42:17;;;;;;;51.70;43.58;;;5.70;85.00;;;;;;5069233;28;20295;-71
2021/11/26 12:44:55;;;;;;;51.80;43.33;;;5.70;84.30;;;;;;5071556;28;20237;-71
2021/11/26 12:47:23;;;;;;;53.17;47.22;;;5.70;84.80;;;;;;5069150;28;20580;-71
2021/11/26 12:52:34;;;;;;;46.65;40.67;;;5.60;83.20;;;;;;5069277;28;20254;-71
2021/11/26 12:55:01;;;;;;;52.47;44.78;;;5.70;81.80;;;;;;5068031;28;20278;-72
2021/11/26 12:57:31;;;;;;;53.40;45.00;;;6.00;81.10;;;;;;5066870;28;20384;-71
2021/11/26 13:00:01;;;;;;;57.55;48.03;;;6.10;80.10;;;;;;5058353;28;20284;-71